Hope, Alaska
Current Conditions -  °F | °C
As of 4:21 PM on Tuesday 25 Nov 2014 (Local Time) from PANC Reporting Station
Light Snow Light Snow  
Wind Chill: 29°   Ceiling: 2200
Heat Index: 34°   Visibility: 10mi
Dew Point: 28°   Wind: 6mph
Humidity: 81%   Direction: 40°NE
Pressure: 30.24"   Gusts: NA
Location:  60.91°N, 149.63°W
Report Text: PANC 260121Z 04005KT 10SM -SN FEW012 BKN022 OVC035 01/M02 A3024 RMK AO2 P0000
Loading
Personal Weather Stations






























Interactive Weather Map New forecast layout! Learn more

10-Day Weather Forecast

Advertisements
Track Severe Weather on mobile